Time;durP1;ratioP1;P1;durP2;ratioP2;P2;SDS_P1;SDS_P2;PMS_P1;PMS_P2;Temp;Humidity;BMP_temperature;BMP_pressure;BME280_temperature;BME280_humidity;BME280_pressure;Samples;Min_cycle;Max_cycle;Signal;HPM_P1;HPM_P2
2022/01/17 00:00:19;;;;;;;79.77;50.23;;;3.10;99.90;;;;;;5049147;28;20946;-75
2022/01/17 00:02:49;;;;;;;76.03;50.53;;;2.90;99.90;;;;;;5049183;28;20476;-73
2022/01/17 00:05:16;;;;;;;82.07;52.40;;;3.00;99.90;;;;;;5049587;28;20923;-71
2022/01/17 00:07:44;;;;;;;82.93;53.10;;;3.00;99.90;;;;;;5049214;28;20869;-74
2022/01/17 00:10:13;;;;;;;80.23;50.97;;;3.10;99.90;;;;;;5049550;28;20480;-73
2022/01/17 00:12:44;;;;;;;79.60;52.20;;;3.10;99.90;;;;;;5049221;28;20492;-74
2022/01/17 00:15:18;;;;;;;72.53;50.47;;;3.20;99.90;;;;;;5048873;28;20469;-71
2022/01/17 00:17:49;;;;;;;77.00;51.27;;;3.30;99.90;;;;;;5049390;28;20443;-72
2022/01/17 00:20:24;;;;;;;71.70;47.17;;;3.30;99.90;;;;;;5049395;28;20896;-74
2022/01/17 00:22:52;;;;;;;80.80;51.00;;;3.40;99.90;;;;;;5048841;28;20490;-75
2022/01/17 00:25:20;;;;;;;71.83;48.47;;;3.30;99.90;;;;;;5049147;28;20504;-73
2022/01/17 00:27:48;;;;;;;74.30;50.83;;;3.20;99.90;;;;;;5049202;28;20461;-75
2022/01/17 00:30:15;;;;;;;79.27;47.90;;;3.30;99.90;;;;;;5049450;28;20461;-75
2022/01/17 00:32:43;;;;;;;73.57;48.60;;;3.30;99.90;;;;;;5048978;28;20502;-73
2022/01/17 00:35:10;;;;;;;86.67;52.80;;;3.20;99.90;;;;;;5049558;28;20452;-72
2022/01/17 00:37:37;;;;;;;79.17;50.60;;;3.00;99.90;;;;;;5049419;28;20457;-72
2022/01/17 00:40:06;;;;;;;81.60;48.60;;;2.80;99.90;;;;;;5049132;28;20518;-72
2022/01/17 00:42:35;;;;;;;74.70;48.87;;;2.70;99.90;;;;;;5049050;28;20484;-75
2022/01/17 00:45:04;;;;;;;83.27;51.20;;;2.80;99.90;;;;;;5049275;28;20497;-75
2022/01/17 00:47:31;;;;;;;78.93;51.30;;;3.10;99.90;;;;;;5049161;28;20513;-74
2022/01/17 00:49:59;;;;;;;76.03;50.37;;;3.10;99.90;;;;;;5048898;28;20471;-73
2022/01/17 00:52:26;;;;;;;71.30;48.50;;;3.00;99.90;;;;;;5048547;28;20546;-72
2022/01/17 00:54:53;;;;;;;69.00;47.60;;;3.10;99.90;;;;;;5048884;28;20461;-73
2022/01/17 00:57:20;;;;;;;89.43;51.57;;;2.90;99.90;;;;;;5049331;28;20449;-75
2022/01/17 00:59:49;;;;;;;72.17;48.73;;;2.70;99.90;;;;;;5049365;28;20844;-73
2022/01/17 01:02:16;;;;;;;75.70;47.37;;;2.80;99.90;;;;;;5048592;28;20884;-73
2022/01/17 01:04:43;;;;;;;75.53;49.43;;;2.60;99.90;;;;;;5048888;28;20504;-74
2022/01/17 01:07:10;;;;;;;74.10;47.47;;;2.60;99.90;;;;;;5048804;28;20461;-74
2022/01/17 01:09:46;;;;;;;71.77;47.57;;;2.60;99.90;;;;;;5048705;28;20459;-75
2022/01/17 01:12:13;;;;;;;70.43;47.87;;;2.70;99.90;;;;;;5048840;28;20576;-74
2022/01/17 01:14:42;;;;;;;73.47;48.40;;;2.70;99.90;;;;;;5048787;28;20452;-76
2022/01/17 01:17:29;;;;;;;79.13;49.63;;;2.80;99.90;;;;;;5048689;28;20460;-73
2022/01/17 01:20:04;;;;;;;72.87;48.20;;;2.80;99.90;;;;;;5048420;28;20500;-72
2022/01/17 01:28:00;;;;;;;65.07;46.53;;;2.70;99.90;;;;;;5050797;28;20431;-72
2022/01/17 01:30:29;;;;;;;67.67;47.07;;;2.70;99.90;;;;;;5052231;28;20469;-73
2022/01/17 01:32:59;;;;;;;70.13;44.77;;;2.70;99.90;;;;;;5052565;28;20523;-72
2022/01/17 01:35:30;;;;;;;73.63;46.57;;;2.70;99.90;;;;;;5052235;28;20454;-75
2022/01/17 01:37:59;;;;;;;71.73;46.57;;;2.60;99.90;;;;;;5051987;28;20508;-73
2022/01/17 01:40:26;;;;;;;65.03;45.43;;;2.70;99.90;;;;;;5052143;28;20472;-74
2022/01/17 01:42:55;;;;;;;69.67;46.03;;;2.90;99.90;;;;;;5052261;28;20851;-71
2022/01/17 01:45:23;;;;;;;69.97;47.23;;;3.00;99.90;;;;;;5052033;28;20484;-74
2022/01/17 01:47:50;;;;;;;70.97;45.60;;;2.90;99.90;;;;;;5052396;28;20500;-76
2022/01/17 01:50:19;;;;;;;75.73;47.47;;;2.90;99.90;;;;;;5051833;28;20461;-74
2022/01/17 01:52:47;;;;;;;69.80;45.73;;;2.90;99.90;;;;;;5052580;28;20545;-73
2022/01/17 01:55:17;;;;;;;72.43;47.13;;;2.90;99.90;;;;;;5057230;28;21005;-71
2022/01/17 01:57:45;;;;;;;78.13;46.53;;;2.90;99.90;;;;;;5056745;28;20452;-71
2022/01/17 02:00:15;;;;;;;61.07;45.40;;;2.80;99.90;;;;;;5056418;28;20453;-72
2022/01/17 02:02:43;;;;;;;75.37;43.23;;;2.60;99.90;;;;;;5056494;28;20514;-71
2022/01/17 02:05:10;;;;;;;61.33;43.43;;;2.70;99.90;;;;;;5051633;28;20487;-74
2022/01/17 02:07:40;;;;;;;66.90;45.00;;;2.60;99.90;;;;;;5051505;28;20481;-72
2022/01/17 02:10:07;;;;;;;59.47;43.10;;;2.40;99.90;;;;;;5051755;28;20454;-73
2022/01/17 02:12:34;;;;;;;67.67;44.80;;;2.50;99.90;;;;;;5051585;28;20480;-75
2022/01/17 02:15:02;;;;;;;64.37;43.17;;;2.50;99.90;;;;;;5051420;28;20446;-72
2022/01/17 02:17:33;;;;;;;68.60;43.50;;;2.70;99.90;;;;;;5051246;28;21018;-72
2022/01/17 02:20:07;;;;;;;66.93;43.23;;;2.80;99.90;;;;;;5051025;28;20495;-76
2022/01/17 02:22:35;;;;;;;62.07;40.83;;;2.80;99.90;;;;;;5051310;28;21311;-73
2022/01/17 02:25:02;;;;;;;65.03;41.53;;;2.90;99.90;;;;;;5050907;28;20500;-76
2022/01/17 02:27:29;;;;;;;55.30;37.97;;;2.90;99.90;;;;;;5051420;28;20462;-75
2022/01/17 02:29:56;;;;;;;66.03;40.33;;;2.80;99.90;;;;;;5051435;28;20863;-74
2022/01/17 02:32:23;;;;;;;63.70;42.73;;;3.00;99.90;;;;;;5051016;28;20486;-75
2022/01/17 02:34:50;;;;;;;60.20;41.80;;;2.90;99.90;;;;;;5051161;28;20462;-74
2022/01/17 02:37:19;;;;;;;68.73;42.07;;;2.90;99.90;;;;;;5050937;28;20469;-75
2022/01/17 02:39:46;;;;;;;63.97;41.67;;;2.80;99.90;;;;;;5051072;28;20484;-74
2022/01/17 02:42:16;;;;;;;62.90;43.10;;;2.80;99.90;;;;;;5050253;28;20467;-73
2022/01/17 02:44:45;;;;;;;63.50;41.73;;;2.70;99.90;;;;;;5050562;28;20488;-74
2022/01/17 02:47:16;;;;;;;59.57;38.47;;;2.80;99.90;;;;;;5050932;28;20471;-73
2022/01/17 02:49:43;;;;;;;57.50;41.50;;;2.90;99.90;;;;;;5050848;28;20536;-71
2022/01/17 02:52:10;;;;;;;61.50;42.37;;;2.90;99.90;;;;;;5050635;28;20482;-74
2022/01/17 02:54:39;;;;;;;56.63;39.17;;;2.80;99.90;;;;;;5050173;28;20465;-72
2022/01/17 02:57:08;;;;;;;53.73;37.87;;;2.80;99.90;;;;;;5050563;28;20863;-74
2022/01/17 02:59:35;;;;;;;64.27;41.33;;;2.80;99.90;;;;;;5050322;28;21043;-72
2022/01/17 03:02:04;;;;;;;53.73;36.53;;;2.80;99.90;;;;;;5050318;28;20472;-74
2022/01/17 03:04:33;;;;;;;57.57;38.23;;;2.80;99.90;;;;;;5050535;28;20538;-74
2022/01/17 03:07:00;;;;;;;56.00;38.53;;;2.90;99.90;;;;;;5050230;28;20458;-75
2022/01/17 03:09:32;;;;;;;55.63;37.33;;;3.00;99.90;;;;;;5050483;28;20461;-75
2022/01/17 03:12:00;;;;;;;59.63;39.60;;;2.90;99.90;;;;;;5049936;28;20561;-75
2022/01/17 03:14:27;;;;;;;58.90;36.17;;;2.80;99.90;;;;;;5050178;28;20808;-74
2022/01/17 03:16:56;;;;;;;53.17;35.77;;;2.90;99.90;;;;;;5050252;28;20454;-74
2022/01/17 03:19:23;;;;;;;47.97;34.43;;;2.80;99.90;;;;;;5049994;28;20932;-74
2022/01/17 03:21:50;;;;;;;57.37;33.97;;;2.60;99.90;;;;;;5049982;28;20480;-72
2022/01/17 03:24:17;;;;;;;64.73;37.57;;;2.40;99.90;;;;;;5050328;28;20495;-72
2022/01/17 03:26:44;;;;;;;61.50;36.37;;;2.10;99.90;;;;;;5049883;28;20455;-72
2022/01/17 03:29:13;;;;;;;53.30;35.50;;;2.10;99.90;;;;;;5049843;28;20484;-74
2022/01/17 03:31:40;;;;;;;52.63;34.97;;;2.00;99.90;;;;;;5050064;28;20482;-74
2022/01/17 03:34:07;;;;;;;54.77;36.00;;;2.30;99.90;;;;;;5050335;28;20457;-72
2022/01/17 03:36:34;;;;;;;54.67;35.33;;;2.40;99.90;;;;;;5049800;28;20454;-66
2022/01/17 03:39:01;;;;;;;54.53;35.73;;;2.50;99.90;;;;;;5049608;28;20469;-72
2022/01/17 03:41:28;;;;;;;48.10;34.70;;;2.60;99.90;;;;;;5049567;28;20954;-72
2022/01/17 03:43:55;;;;;;;54.37;37.27;;;2.60;99.90;;;;;;5049624;28;20459;-77
2022/01/17 03:46:24;;;;;;;52.90;35.70;;;2.60;99.90;;;;;;5049785;28;20456;-75
2022/01/17 03:48:51;;;;;;;59.50;37.17;;;2.60;99.90;;;;;;5049945;28;20468;-70
2022/01/17 03:51:18;;;;;;;52.80;34.93;;;2.60;99.90;;;;;;5049133;28;20991;-71
2022/01/17 03:53:45;;;;;;;55.07;35.23;;;2.60;99.90;;;;;;5049773;28;20473;-71
2022/01/17 03:56:12;;;;;;;54.60;36.23;;;2.50;99.90;;;;;;5049855;28;20452;-71
2022/01/17 03:58:39;;;;;;;56.67;37.43;;;2.20;99.90;;;;;;5049526;28;20458;-70
2022/01/17 04:01:07;;;;;;;59.60;34.13;;;2.20;99.90;;;;;;5049264;28;20808;-72
2022/01/17 04:03:35;;;;;;;57.10;34.70;;;2.30;99.90;;;;;;5049681;28;20966;-74
2022/01/17 04:06:02;;;;;;;49.73;33.83;;;2.30;99.90;;;;;;5049172;28;20940;-72
2022/01/17 04:08:29;;;;;;;53.73;35.17;;;2.40;99.90;;;;;;5049553;28;20804;-69
2022/01/17 04:10:56;;;;;;;49.97;34.57;;;2.20;99.90;;;;;;5049601;28;20527;-71
2022/01/17 04:13:24;;;;;;;51.33;33.50;;;2.10;99.90;;;;;;5049545;28;20458;-73
2022/01/17 04:15:51;;;;;;;48.13;32.93;;;2.00;99.90;;;;;;5049271;28;20491;-76
2022/01/17 04:18:23;;;;;;;56.27;33.40;;;2.20;99.90;;;;;;5049319;28;20561;-74
2022/01/17 04:20:53;;;;;;;53.27;35.00;;;2.20;99.90;;;;;;5048636;28;20506;-73
2022/01/17 04:23:20;;;;;;;49.83;33.30;;;2.10;99.90;;;;;;5047901;28;20466;-75
2022/01/17 04:25:48;;;;;;;54.40;34.50;;;2.10;99.90;;;;;;5049541;28;20495;-71
2022/01/17 04:28:15;;;;;;;52.83;34.63;;;2.10;99.90;;;;;;5049221;28;20460;-74
2022/01/17 04:30:43;;;;;;;54.30;35.00;;;2.10;99.90;;;;;;5049479;28;20526;-73
2022/01/17 04:33:12;;;;;;;54.77;34.47;;;2.10;99.90;;;;;;5048957;28;20449;-71
2022/01/17 04:35:39;;;;;;;48.83;34.00;;;2.10;99.90;;;;;;5049006;28;20531;-71
2022/01/17 04:38:09;;;;;;;51.50;34.37;;;2.10;99.90;;;;;;5049127;28;21003;-75
2022/01/17 04:40:39;;;;;;;46.37;32.77;;;2.10;99.90;;;;;;5049247;28;20457;-75
2022/01/17 04:43:16;;;;;;;45.77;29.40;;;2.20;99.90;;;;;;5049124;28;20459;-70
2022/01/17 04:45:43;;;;;;;51.40;34.43;;;2.00;99.90;;;;;;5049950;28;20497;-73
2022/01/17 04:48:10;;;;;;;47.17;31.27;;;2.00;99.90;;;;;;5051212;28;20465;-72
2022/01/17 04:50:37;;;;;;;48.60;31.60;;;1.80;99.90;;;;;;5055751;28;20476;-70
2022/01/17 04:53:04;;;;;;;49.17;29.63;;;1.80;99.90;;;;;;5054683;28;20450;-69
2022/01/17 04:55:33;;;;;;;51.40;30.80;;;2.00;99.90;;;;;;5056816;28;20501;-71
2022/01/17 04:58:00;;;;;;;48.50;30.87;;;2.00;99.90;;;;;;5053815;28;20458;-75
2022/01/17 05:00:28;;;;;;;49.90;29.30;;;2.00;99.90;;;;;;5048836;28;20455;-74
2022/01/17 05:02:55;;;;;;;47.00;29.57;;;2.00;99.90;;;;;;5050975;28;20451;-73
2022/01/17 05:05:23;;;;;;;46.67;29.17;;;2.20;99.90;;;;;;5052734;28;20510;-74
2022/01/17 05:07:50;;;;;;;45.60;30.10;;;2.30;99.90;;;;;;5052807;28;20462;-74
2022/01/17 05:10:21;;;;;;;47.20;30.10;;;2.20;99.90;;;;;;5052766;28;20478;-71
2022/01/17 05:12:50;;;;;;;54.07;30.97;;;2.10;99.90;;;;;;5052542;28;20537;-72
2022/01/17 05:15:30;;;;;;;46.30;29.13;;;2.00;99.90;;;;;;5052545;28;20489;-70
2022/01/17 05:18:01;;;;;;;48.73;31.67;;;2.20;99.90;;;;;;5052543;28;20548;-74
2022/01/17 05:20:29;;;;;;;49.23;30.80;;;2.20;99.90;;;;;;5051754;28;20617;-72
2022/01/17 05:22:57;;;;;;;46.53;29.67;;;2.20;99.90;;;;;;5052305;28;20504;-75
2022/01/17 05:25:24;;;;;;;46.33;31.17;;;2.20;99.90;;;;;;5052404;28;20881;-71
2022/01/17 05:27:52;;;;;;;45.93;31.50;;;2.40;99.90;;;;;;5052298;28;20490;-76
2022/01/17 05:30:21;;;;;;;51.53;32.27;;;2.40;99.90;;;;;;5052522;28;20877;-71
2022/01/17 05:32:49;;;;;;;48.27;30.27;;;2.40;99.90;;;;;;5052661;28;20563;-71
2022/01/17 05:35:18;;;;;;;56.57;32.00;;;2.50;99.90;;;;;;5052099;28;20519;-70
2022/01/17 05:37:46;;;;;;;47.67;31.43;;;2.20;99.90;;;;;;5052123;28;20518;-72
2022/01/17 05:40:18;;;;;;;45.40;31.57;;;2.30;99.90;;;;;;5052182;28;20454;-76
2022/01/17 05:42:46;;;;;;;49.00;30.67;;;2.30;99.90;;;;;;5052182;28;20456;-72
2022/01/17 05:45:16;;;;;;;48.20;30.83;;;2.30;99.90;;;;;;5052158;28;20458;-72
2022/01/17 05:47:43;;;;;;;48.20;29.90;;;2.40;99.90;;;;;;5052256;28;20462;-73
2022/01/17 05:50:11;;;;;;;64.47;34.87;;;2.40;99.90;;;;;;5051938;28;20470;-75
2022/01/17 05:52:38;;;;;;;61.57;33.13;;;2.20;99.90;;;;;;5051859;28;20480;-74
2022/01/17 05:55:08;;;;;;;47.10;30.97;;;2.10;99.90;;;;;;5051922;28;20497;-74
2022/01/17 05:57:35;;;;;;;56.23;31.90;;;1.90;99.90;;;;;;5053146;28;20473;-75
2022/01/17 06:00:04;;;;;;;50.40;32.10;;;1.90;99.90;;;;;;5053315;28;20944;-74
2022/01/17 06:02:32;;;;;;;47.80;33.27;;;2.00;99.90;;;;;;5052777;28;20466;-71
2022/01/17 06:04:59;;;;;;;52.57;31.13;;;2.00;99.90;;;;;;5054292;28;20447;-72
2022/01/17 06:07:26;;;;;;;57.20;31.87;;;2.00;99.90;;;;;;5053058;28;20502;-70
2022/01/17 06:09:53;;;;;;;48.57;30.87;;;2.00;99.90;;;;;;5052024;28;20453;-74
2022/01/17 06:12:20;;;;;;;47.23;30.40;;;2.00;99.90;;;;;;5051553;28;20463;-70
2022/01/17 06:14:47;;;;;;;47.70;31.33;;;2.10;99.90;;;;;;5050773;28;20490;-71
2022/01/17 06:17:14;;;;;;;49.70;29.53;;;2.10;99.90;;;;;;5051265;28;20457;-71
2022/01/17 06:19:43;;;;;;;51.40;29.47;;;2.20;99.90;;;;;;5050646;28;20496;-72
2022/01/17 06:22:10;;;;;;;47.00;28.77;;;2.10;99.90;;;;;;5051220;28;20480;-72
2022/01/17 06:24:37;;;;;;;47.93;29.57;;;2.10;99.90;;;;;;5051405;28;20480;-77
2022/01/17 06:27:05;;;;;;;42.23;28.40;;;2.20;99.90;;;;;;5051035;28;20536;-72
2022/01/17 06:29:32;;;;;;;45.70;28.67;;;2.20;99.90;;;;;;5051390;28;20513;-72
2022/01/17 06:31:59;;;;;;;55.87;30.63;;;2.20;99.90;;;;;;5051017;28;20479;-75
2022/01/17 06:34:26;;;;;;;45.60;31.50;;;2.30;99.90;;;;;;5050621;28;20458;-73
2022/01/17 06:36:54;;;;;;;48.63;30.60;;;2.30;99.90;;;;;;5051059;28;20560;-73
2022/01/17 06:39:21;;;;;;;46.17;29.93;;;2.30;99.90;;;;;;5050425;28;20495;-72
2022/01/17 06:41:50;;;;;;;43.20;28.03;;;2.40;99.90;;;;;;5050713;28;20472;-72
2022/01/17 06:44:17;;;;;;;44.50;30.37;;;2.50;99.90;;;;;;5051102;28;20732;-71
2022/01/17 06:46:44;;;;;;;41.77;29.77;;;2.50;99.90;;;;;;5050659;28;20446;-72
2022/01/17 06:49:12;;;;;;;46.50;29.20;;;2.50;99.90;;;;;;5050393;28;20464;-71
2022/01/17 06:51:40;;;;;;;45.03;31.40;;;2.60;99.90;;;;;;5050729;28;20559;-71
2022/01/17 06:54:08;;;;;;;45.50;29.27;;;2.70;99.90;;;;;;5050960;28;20438;-72
2022/01/17 06:56:35;;;;;;;47.70;30.67;;;2.60;99.90;;;;;;5050549;28;21030;-75
2022/01/17 06:59:03;;;;;;;47.30;31.27;;;2.70;99.90;;;;;;5050116;28;20450;-69
2022/01/17 07:01:30;;;;;;;45.47;30.57;;;2.70;99.90;;;;;;5049833;28;20530;-70
2022/01/17 07:03:57;;;;;;;42.57;30.70;;;2.70;99.90;;;;;;5050370;28;20893;-70
2022/01/17 07:06:24;;;;;;;47.47;30.90;;;2.80;99.90;;;;;;5050437;28;20461;-72
2022/01/17 07:08:51;;;;;;;46.07;31.00;;;2.90;99.90;;;;;;5050596;28;20477;-73
2022/01/17 07:11:21;;;;;;;45.53;31.07;;;3.10;99.90;;;;;;5049583;28;20488;-72
2022/01/17 07:13:48;;;;;;;53.20;32.90;;;3.10;99.90;;;;;;5049982;28;21007;-71
2022/01/17 07:16:16;;;;;;;57.70;33.57;;;3.20;99.90;;;;;;5050106;28;20483;-72
2022/01/17 07:18:43;;;;;;;51.03;33.20;;;3.40;99.90;;;;;;5050074;28;20483;-71
2022/01/17 07:21:10;;;;;;;60.83;33.83;;;3.50;99.90;;;;;;5050214;28;20472;-74
2022/01/17 07:23:37;;;;;;;48.67;34.87;;;3.60;99.90;;;;;;5050403;28;20503;-72
2022/01/17 07:26:05;;;;;;;51.13;34.27;;;3.70;99.90;;;;;;5049378;28;20500;-70
2022/01/17 07:28:33;;;;;;;51.23;34.50;;;3.80;99.90;;;;;;5050195;28;20459;-73
2022/01/17 07:31:00;;;;;;;45.97;31.20;;;3.90;99.90;;;;;;5049997;28;20480;-75
2022/01/17 07:33:28;;;;;;;47.07;29.10;;;3.90;99.90;;;;;;5050085;28;20450;-73
2022/01/17 07:35:55;;;;;;;43.23;29.00;;;3.80;99.90;;;;;;5050122;28;20482;-72
2022/01/17 07:38:22;;;;;;;43.40;26.73;;;3.90;99.90;;;;;;5049990;28;20801;-72
2022/01/17 07:40:49;;;;;;;28.83;19.63;;;4.10;99.90;;;;;;5049242;28;20512;-72
2022/01/17 07:43:17;;;;;;;42.80;29.50;;;4.10;99.90;;;;;;5052268;28;20508;-75
2022/01/17 07:46:02;;;;;;;39.17;26.57;;;4.20;99.90;;;;;;5054032;28;20452;-69
2022/01/17 07:48:57;;;;;;;28.60;18.40;;;4.30;99.90;;;;;;5049755;28;20463;-68
2022/01/17 07:51:25;;;;;;;26.33;16.83;;;4.40;99.90;;;;;;5051755;28;20940;-69
2022/01/17 07:53:53;;;;;;;23.33;14.10;;;4.70;99.90;;;;;;5049843;28;20458;-75
2022/01/17 07:56:20;;;;;;;21.57;10.80;;;4.90;99.90;;;;;;5049691;28;20497;-71
2022/01/17 07:58:47;;;;;;;21.60;11.10;;;5.10;99.90;;;;;;5049871;28;20464;-72
2022/01/17 08:01:16;;;;;;;17.23;10.93;;;5.30;99.90;;;;;;5049428;28;20476;-71
2022/01/17 08:03:43;;;;;;;16.30;10.30;;;5.60;99.90;;;;;;5049249;28;20563;-76
2022/01/17 08:06:10;;;;;;;15.13;10.40;;;5.80;99.90;;;;;;5049635;28;20522;-71
2022/01/17 08:08:38;;;;;;;19.50;10.03;;;5.90;99.90;;;;;;5049619;28;20465;-78
2022/01/17 08:11:06;;;;;;;13.73;8.00;;;6.10;98.80;;;;;;5049507;28;20470;-78
2022/01/17 08:13:33;;;;;;;11.30;7.40;;;6.20;96.70;;;;;;5049823;28;20465;-77
2022/01/17 08:16:02;;;;;;;16.60;8.40;;;6.20;96.80;;;;;;5049014;28;20493;-75
2022/01/17 08:18:31;;;;;;;13.70;8.13;;;6.40;95.30;;;;;;5048964;28;20800;-74
2022/01/17 08:20:59;;;;;;;14.90;8.10;;;6.50;94.80;;;;;;5048764;28;20497;-74
2022/01/17 08:23:26;;;;;;;14.10;9.30;;;6.80;94.40;;;;;;5049340;28;20898;-76
2022/01/17 08:25:53;;;;;;;12.50;8.40;;;7.10;93.90;;;;;;5048820;28;20508;-71
2022/01/17 08:28:20;;;;;;;11.87;7.37;;;7.30;94.00;;;;;;5049796;28;20458;-78
2022/01/17 08:30:47;;;;;;;13.87;7.40;;;7.50;92.40;;;;;;5048933;28;20474;-81
2022/01/17 08:33:15;;;;;;;16.83;7.60;;;7.50;92.20;;;;;;5049270;28;20508;-79
2022/01/17 08:35:44;;;;;;;10.93;7.00;;;7.60;91.70;;;;;;5049065;28;20487;-83
2022/01/17 08:38:11;;;;;;;12.40;7.50;;;7.80;91.70;;;;;;5053425;28;20459;-76
2022/01/17 08:40:39;;;;;;;13.10;8.13;;;8.10;91.20;;;;;;5052382;28;20540;-72
2022/01/17 08:43:07;;;;;;;17.33;9.47;;;8.10;91.40;;;;;;5053011;28;20455;-71
2022/01/17 08:45:34;;;;;;;13.67;8.10;;;8.30;91.30;;;;;;5052930;28;20460;-70
2022/01/17 08:48:02;;;;;;;13.73;8.70;;;8.50;91.90;;;;;;5052967;28;20881;-77
2022/01/17 08:50:29;;;;;;;13.40;10.23;;;8.70;91.00;;;;;;5053170;28;20540;-69
2022/01/17 08:52:58;;;;;;;18.37;9.83;;;8.90;90.60;;;;;;5052778;28;20464;-70
2022/01/17 08:55:26;;;;;;;16.90;9.53;;;8.80;90.20;;;;;;5052714;28;20506;-71
2022/01/17 08:57:53;;;;;;;15.30;9.53;;;8.90;90.10;;;;;;5052654;28;20874;-72
2022/01/17 09:00:21;;;;;;;16.80;10.90;;;9.10;89.30;;;;;;5052396;28;20457;-72
2022/01/17 09:02:48;;;;;;;12.80;9.00;;;9.10;89.40;;;;;;5052482;28;21011;-72
2022/01/17 09:05:15;;;;;;;14.47;10.30;;;9.20;90.10;;;;;;5052792;28;20498;-72
2022/01/17 09:07:42;;;;;;;15.37;10.93;;;9.50;87.50;;;;;;5052510;28;20822;-72
2022/01/17 09:10:12;;;;;;;17.70;14.47;;;9.70;85.60;;;;;;5052483;28;20449;-72
2022/01/17 09:12:39;;;;;;;15.20;12.13;;;9.90;84.20;;;;;;5052499;28;20520;-73
2022/01/17 09:15:06;;;;;;;16.63;11.23;;;10.10;82.50;;;;;;5052286;28;20465;-73
2022/01/17 09:17:34;;;;;;;15.50;10.30;;;10.20;79.70;;;;;;5052109;28;20501;-73
2022/01/17 09:20:01;;;;;;;12.13;9.40;;;10.20;77.40;;;;;;5051996;28;20505;-74
2022/01/17 09:22:29;;;;;;;13.87;8.70;;;10.00;76.50;;;;;;5052267;28;20482;-70
2022/01/17 09:24:57;;;;;;;15.80;9.70;;;10.10;76.20;;;;;;5052030;28;20485;-71
2022/01/17 09:27:26;;;;;;;15.70;9.37;;;10.10;75.80;;;;;;5052312;28;20453;-74
2022/01/17 09:29:54;;;;;;;11.67;7.70;;;10.10;74.60;;;;;;5052140;28;20461;-71
2022/01/17 09:32:21;;;;;;;12.53;8.07;;;10.10;74.10;;;;;;5052106;28;20489;-72
2022/01/17 09:34:48;;;;;;;14.10;8.27;;;10.20;73.90;;;;;;5052632;28;20814;-72
2022/01/17 09:37:15;;;;;;;15.07;8.87;;;10.30;74.20;;;;;;5051899;28;20852;-73
2022/01/17 09:39:43;;;;;;;11.73;8.00;;;10.30;73.10;;;;;;5050548;28;20460;-73
2022/01/17 09:42:11;;;;;;;15.27;9.00;;;10.30;74.00;;;;;;5051675;28;20485;-72
2022/01/17 09:44:40;;;;;;;20.43;9.07;;;10.00;74.30;;;;;;5052158;28;20546;-71
2022/01/17 09:47:09;;;;;;;13.50;9.10;;;9.80;76.60;;;;;;5051627;28;20844;-72
2022/01/17 09:49:41;;;;;;;11.53;8.80;;;9.70;77.40;;;;;;5051123;28;20547;-72
2022/01/17 09:52:34;;;;;;;14.07;9.50;;;9.80;78.00;;;;;;5051112;28;20491;-72
2022/01/17 09:55:05;;;;;;;19.47;9.87;;;9.70;77.70;;;;;;5051103;28;20937;-73
2022/01/17 09:57:35;;;;;;;14.80;10.20;;;9.30;79.30;;;;;;5051566;28;20623;-71
2022/01/17 10:00:05;;;;;;;12.67;8.87;;;9.30;80.50;;;;;;5051642;28;20480;-73
2022/01/17 10:02:32;;;;;;;12.63;9.77;;;9.40;80.50;;;;;;5051103;28;20469;-71
2022/01/17 10:05:02;;;;;;;16.60;10.57;;;9.30;82.00;;;;;;5051578;28;20923;-72
2022/01/17 10:07:52;;;;;;;15.40;8.80;;;9.30;83.20;;;;;;5051450;28;20457;-71
2022/01/17 10:10:34;;;;;;;12.20;8.67;;;9.00;85.80;;;;;;5051521;28;20452;-71
2022/01/17 10:13:06;;;;;;;10.13;6.10;;;9.00;86.80;;;;;;5050948;28;20461;-73
2022/01/17 10:15:45;;;;;;;13.37;5.80;;;9.00;86.40;;;;;;5051015;28;20588;-72
2022/01/17 10:18:42;;;;;;;12.40;5.80;;;8.80;86.70;;;;;;5051337;28;20454;-74
2022/01/17 10:21:14;;;;;;;9.10;5.57;;;8.80;86.80;;;;;;5050636;28;20506;-71
2022/01/17 10:24:02;;;;;;;11.03;6.20;;;8.50;87.90;;;;;;5050742;28;20455;-73
2022/01/17 10:34:55;;;;;;;7.67;5.30;;;8.60;90.00;;;;;;5051207;28;20495;-72
2022/01/17 10:37:23;;;;;;;8.33;5.17;;;8.90;88.90;;;;;;5051002;28;20916;-72
2022/01/17 10:39:59;;;;;;;10.43;4.43;;;9.10;88.10;;;;;;5051225;28;20518;-74
2022/01/17 10:42:34;;;;;;;8.63;5.60;;;9.20;86.10;;;;;;5052362;28;20508;-74
2022/01/17 10:45:06;;;;;;;8.30;5.13;;;9.10;86.60;;;;;;5050682;28;20944;-74
2022/01/17 10:47:39;;;;;;;7.47;4.80;;;9.10;86.60;;;;;;5051271;28;20500;-75
2022/01/17 10:50:09;;;;;;;6.83;4.70;;;9.30;87.00;;;;;;5051751;28;20436;-78
2022/01/17 10:52:39;;;;;;;8.80;4.93;;;9.10;87.10;;;;;;5054903;28;20481;-78
2022/01/17 10:55:10;;;;;;;8.60;5.60;;;9.20;87.10;;;;;;5060164;28;20461;-78
2022/01/17 10:57:40;;;;;;;11.77;6.37;;;9.10;87.60;;;;;;5059998;28;20493;-75
2022/01/17 11:00:10;;;;;;;10.80;6.80;;;9.20;87.50;;;;;;5059226;28;20456;-77
2022/01/17 11:02:40;;;;;;;8.27;5.40;;;9.20;86.80;;;;;;5055740;28;20469;-75
2022/01/17 11:05:11;;;;;;;8.30;5.90;;;9.50;86.20;;;;;;5050826;28;20461;-77
2022/01/17 11:07:42;;;;;;;9.60;6.40;;;9.70;85.60;;;;;;5050457;28;20453;-77
2022/01/17 11:10:19;;;;;;;10.83;6.10;;;9.90;85.10;;;;;;5050823;28;20468;-77
2022/01/17 11:12:46;;;;;;;9.67;7.10;;;10.30;82.50;;;;;;5051132;28;20463;-81
2022/01/17 11:15:15;;;;;;;9.40;5.93;;;10.60;80.80;;;;;;5050499;28;20445;-80
2022/01/17 11:17:50;;;;;;;9.90;7.23;;;10.70;80.10;;;;;;5050316;28;20525;-76
2022/01/17 11:20:18;;;;;;;11.27;6.47;;;11.00;79.20;;;;;;5049847;28;21286;-80
2022/01/17 11:22:48;;;;;;;10.30;6.87;;;11.20;77.10;;;;;;5050032;28;20454;-75
2022/01/17 11:25:17;;;;;;;10.90;6.90;;;11.40;77.40;;;;;;5050356;28;20458;-79
2022/01/17 11:27:45;;;;;;;10.40;7.30;;;11.80;75.50;;;;;;5050318;28;20810;-78
2022/01/17 11:30:14;;;;;;;9.33;5.63;;;11.50;73.60;;;;;;5048800;28;20454;-78
2022/01/17 11:32:43;;;;;;;9.70;5.70;;;11.40;73.60;;;;;;5050230;28;20565;-76
2022/01/17 11:35:11;;;;;;;9.17;6.20;;;11.20;72.60;;;;;;5050246;28;20773;-79
2022/01/17 11:37:40;;;;;;;8.57;4.93;;;11.20;72.70;;;;;;5049524;28;21028;-77
2022/01/17 11:40:09;;;;;;;7.93;5.70;;;11.30;71.70;;;;;;5048815;28;20462;-79
2022/01/17 11:42:39;;;;;;;7.90;4.37;;;11.00;71.90;;;;;;5050004;28;20535;-81
2022/01/17 11:45:35;;;;;;;8.17;4.20;;;10.80;70.90;;;;;;5049809;28;20507;-78
2022/01/17 11:48:08;;;;;;;6.33;4.20;;;11.10;71.30;;;;;;5049992;28;20536;-79
2022/01/17 11:50:47;;;;;;;10.50;6.43;;;11.50;71.40;;;;;;5049681;28;20458;-78
2022/01/17 11:53:50;;;;;;;7.17;5.20;;;11.90;69.60;;;;;;5049555;28;20472;-79
2022/01/17 11:56:38;;;;;;;9.40;4.37;;;11.70;68.30;;;;;;5049736;28;20973;-77
2022/01/17 11:59:23;;;;;;;7.60;4.70;;;11.90;68.20;;;;;;5049728;28;20454;-77
2022/01/17 12:02:14;;;;;;;8.57;5.10;;;12.10;69.10;;;;;;5051063;28;20462;-76
2022/01/17 12:05:03;;;;;;;8.50;4.70;;;12.70;66.00;;;;;;5049542;28;20777;-78
2022/01/17 12:07:37;;;;;;;7.00;4.87;;;12.30;64.80;;;;;;5048757;28;20457;-77
2022/01/17 12:10:08;;;;;;;9.10;5.10;;;12.00;64.70;;;;;;5049675;28;20897;-75
2022/01/17 12:12:36;;;;;;;6.90;4.77;;;12.00;65.20;;;;;;5049123;28;20561;-77
2022/01/17 12:15:06;;;;;;;7.70;4.80;;;12.10;65.70;;;;;;5049372;28;20565;-79
2022/01/17 12:17:35;;;;;;;7.57;4.07;;;12.20;64.80;;;;;;5049299;28;20512;-77
2022/01/17 12:20:24;;;;;;;6.60;4.27;;;12.00;64.40;;;;;;5049112;28;20600;-78
2022/01/17 12:22:58;;;;;;;7.73;4.77;;;11.70;64.70;;;;;;5049065;28;20449;-79
2022/01/17 12:25:35;;;;;;;6.77;4.43;;;11.40;65.20;;;;;;5049578;28;20465;-75
2022/01/17 12:28:25;;;;;;;7.70;4.63;;;11.50;64.80;;;;;;5049654;28;20445;-75
2022/01/17 12:30:54;;;;;;;8.10;4.23;;;11.20;66.30;;;;;;5049339;28;20478;-76
2022/01/17 12:33:37;;;;;;;8.43;5.10;;;11.60;65.50;;;;;;5049588;28;20454;-79
2022/01/17 12:36:28;;;;;;;9.00;4.83;;;11.30;65.60;;;;;;5049455;28;20453;-76
2022/01/17 12:39:11;;;;;;;8.60;5.30;;;11.50;65.20;;;;;;5049322;28;20457;-77
2022/01/17 12:41:41;;;;;;;8.53;5.97;;;11.70;65.00;;;;;;5053526;28;20505;-75
2022/01/17 12:44:17;;;;;;;8.03;5.07;;;11.70;64.70;;;;;;5049323;28;20477;-75
2022/01/17 12:46:45;;;;;;;9.60;5.87;;;11.60;65.80;;;;;;5049231;28;20481;-75
2022/01/17 12:49:14;;;;;;;8.63;4.90;;;11.70;65.60;;;;;;5049384;28;20449;-74
2022/01/17 12:51:43;;;;;;;7.90;5.47;;;12.00;64.50;;;;;;5048451;28;20527;-75
2022/01/17 12:54:12;;;;;;;8.60;5.60;;;12.00;64.40;;;;;;5049404;28;20450;-70
2022/01/17 12:56:43;;;;;;;9.20;6.27;;;12.30;64.50;;;;;;5048731;28;20501;-71
2022/01/17 12:59:11;;;;;;;7.80;5.67;;;12.50;63.20;;;;;;5048714;28;20880;-72
2022/01/17 13:01:43;;;;;;;10.30;5.37;;;12.70;62.30;;;;;;5048527;28;20488;-71
2022/01/17 13:04:12;;;;;;;8.67;6.20;;;12.50;61.50;;;;;;5048723;28;20450;-71
2022/01/17 13:06:40;;;;;;;7.40;4.67;;;12.70;61.40;;;;;;5048297;28;20457;-68